Time;durP1;ratioP1;P1;durP2;ratioP2;P2;SDS_P1;SDS_P2;PMS_P1;PMS_P2;Temp;Humidity;BMP_temperature;BMP_pressure;BME280_temperature;BME280_humidity;BME280_pressure;Samples;Min_cycle;Max_cycle;Signal;HPM_P1;HPM_P2
2023/09/29 00:01:38;;;;;;;4.33;2.77;;;16.40;99.90;;;;;;5020153;28;20161;-42
2023/09/29 00:04:08;;;;;;;7.00;2.40;;;16.40;99.90;;;;;;5015546;28;20653;-42
2023/09/29 00:06:34;;;;;;;4.50;2.47;;;16.50;99.90;;;;;;5016501;28;20257;-43
2023/09/29 00:09:06;;;;;;;4.27;2.10;;;16.50;99.90;;;;;;5016197;28;20181;-42
2023/09/29 00:11:33;;;;;;;4.37;2.00;;;16.50;99.90;;;;;;5015243;28;20653;-43
2023/09/29 00:13:58;;;;;;;2.93;1.80;;;16.60;99.90;;;;;;5016267;28;20672;-41
2023/09/29 00:16:24;;;;;;;4.53;1.93;;;16.60;99.90;;;;;;5016747;28;20181;-42
2023/09/29 00:18:50;;;;;;;3.20;1.77;;;16.60;99.90;;;;;;5016284;28;20185;-43
2023/09/29 00:21:15;;;;;;;9.40;2.20;;;16.60;99.90;;;;;;5016129;28;20292;-43
2023/09/29 00:23:41;;;;;;;4.63;2.00;;;16.60;99.90;;;;;;5016795;28;20177;-42
2023/09/29 00:26:07;;;;;;;4.60;1.83;;;16.60;99.90;;;;;;5016349;28;20174;-42
2023/09/29 00:28:32;;;;;;;2.97;1.90;;;16.70;99.90;;;;;;5016434;28;20809;-42
2023/09/29 00:30:59;;;;;;;2.80;2.03;;;16.70;99.90;;;;;;5016007;28;20700;-43
2023/09/29 00:33:25;;;;;;;3.43;2.00;;;16.70;99.90;;;;;;5016300;28;20216;-43
2023/09/29 00:35:51;;;;;;;3.80;2.20;;;16.70;99.90;;;;;;5016258;28;20281;-44
2023/09/29 00:38:16;;;;;;;3.30;2.00;;;16.80;99.90;;;;;;5016112;28;20309;-42
2023/09/29 00:40:42;;;;;;;4.97;1.80;;;16.80;99.90;;;;;;5015929;28;20198;-44
2023/09/29 00:43:10;;;;;;;5.47;2.00;;;16.80;99.90;;;;;;5015582;28;20216;-41
2023/09/29 00:45:36;;;;;;;5.27;2.00;;;16.80;99.90;;;;;;5015674;28;20645;-43
2023/09/29 00:48:08;;;;;;;2.10;1.50;;;16.80;99.90;;;;;;5015639;28;20666;-42
2023/09/29 00:50:35;;;;;;;3.50;1.80;;;16.80;99.90;;;;;;5015609;28;20201;-43
2023/09/29 00:53:08;;;;;;;2.87;1.87;;;16.80;99.90;;;;;;5015549;28;20216;-42
2023/09/29 00:55:36;;;;;;;5.00;2.20;;;16.80;99.90;;;;;;5015766;28;20174;-40
2023/09/29 00:58:02;;;;;;;3.57;1.97;;;16.80;99.90;;;;;;5015408;28;20219;-42
2023/09/29 01:03:00;;;;;;;4.13;1.63;;;16.80;99.90;;;;;;5015498;28;20174;-41
2023/09/29 01:05:26;;;;;;;2.10;1.67;;;16.80;99.90;;;;;;5015409;28;20260;-43
2023/09/29 01:07:52;;;;;;;3.13;1.70;;;16.80;99.90;;;;;;5015677;28;20182;-41
2023/09/29 01:10:18;;;;;;;4.03;1.63;;;16.80;99.90;;;;;;5015421;28;20212;-42
2023/09/29 01:12:44;;;;;;;4.43;1.70;;;16.80;99.90;;;;;;5015296;28;20764;-40
2023/09/29 01:15:14;;;;;;;2.07;1.70;;;16.80;99.90;;;;;;5015358;28;20213;-42
2023/09/29 01:17:42;;;;;;;3.73;2.00;;;16.80;99.90;;;;;;5015263;28;20205;-42
2023/09/29 01:20:15;;;;;;;3.13;2.00;;;16.80;99.90;;;;;;5015327;28;20208;-43
2023/09/29 01:22:46;;;;;;;2.73;1.70;;;16.80;99.90;;;;;;5015817;28;20165;-40
2023/09/29 01:25:14;;;;;;;3.90;1.90;;;16.80;99.90;;;;;;5015308;28;20733;-41
2023/09/29 01:27:47;;;;;;;4.03;1.57;;;16.80;99.90;;;;;;5015088;28;20182;-48
2023/09/29 01:30:16;;;;;;;5.87;1.87;;;16.80;99.90;;;;;;5014810;28;20216;-46
2023/09/29 01:32:43;;;;;;;3.23;1.67;;;16.80;99.90;;;;;;5014035;28;20192;-48
2023/09/29 01:35:21;;;;;;;2.57;1.63;;;16.80;99.90;;;;;;5015561;28;20184;-42
2023/09/29 01:37:48;;;;;;;2.73;1.67;;;16.80;99.90;;;;;;5014832;28;20263;-42
2023/09/29 01:40:15;;;;;;;3.63;1.80;;;16.80;99.90;;;;;;5014456;28;20205;-46
2023/09/29 01:42:50;;;;;;;4.90;1.97;;;16.80;99.90;;;;;;5014954;28;20190;-47
2023/09/29 01:45:31;;;;;;;5.87;1.83;;;16.80;99.90;;;;;;5015035;28;20161;-47
2023/09/29 01:48:01;;;;;;;2.80;1.53;;;16.90;99.90;;;;;;5015935;28;20190;-43
2023/09/29 01:50:27;;;;;;;5.10;2.30;;;16.90;99.90;;;;;;5016023;28;20201;-42
2023/09/29 01:52:53;;;;;;;3.03;1.60;;;16.90;99.90;;;;;;5014763;28;20194;-43
2023/09/29 01:55:19;;;;;;;3.00;1.70;;;16.90;99.90;;;;;;5014689;28;20537;-41
2023/09/29 01:57:47;;;;;;;4.03;1.70;;;16.90;99.90;;;;;;5014858;28;20201;-44
2023/09/29 02:00:19;;;;;;;4.07;1.73;;;16.90;99.90;;;;;;5014520;28;20284;-43
2023/09/29 02:02:48;;;;;;;5.73;2.33;;;16.90;99.90;;;;;;5014305;28;20154;-41
2023/09/29 02:05:16;;;;;;;3.50;2.00;;;16.90;99.90;;;;;;5014800;28;20192;-43
2023/09/29 02:07:45;;;;;;;2.30;1.83;;;16.90;99.90;;;;;;5014519;28;20177;-41
2023/09/29 02:10:11;;;;;;;4.43;2.17;;;16.90;99.90;;;;;;5014673;28;20300;-41
2023/09/29 02:12:49;;;;;;;2.80;2.00;;;16.90;99.90;;;;;;5014415;28;20200;-42
2023/09/29 02:15:18;;;;;;;3.80;1.53;;;16.90;99.90;;;;;;5014498;28;20157;-42
2023/09/29 02:17:44;;;;;;;2.67;1.60;;;16.90;99.90;;;;;;5013996;28;20215;-43
2023/09/29 02:20:15;;;;;;;3.87;1.70;;;16.90;99.90;;;;;;5014069;28;20201;-41
2023/09/29 02:22:41;;;;;;;2.97;1.60;;;17.00;99.90;;;;;;5014371;28;20223;-40
2023/09/29 02:25:12;;;;;;;5.70;1.80;;;17.00;99.90;;;;;;5014317;28;20177;-42
2023/09/29 02:27:38;;;;;;;6.03;1.87;;;17.00;99.90;;;;;;5014261;28;20182;-43
2023/09/29 02:30:04;;;;;;;3.17;1.60;;;17.00;99.90;;;;;;5012818;28;20209;-43
2023/09/29 02:32:30;;;;;;;3.23;1.87;;;17.00;99.90;;;;;;5013875;28;20537;-43
2023/09/29 02:34:55;;;;;;;2.87;1.53;;;17.00;99.90;;;;;;5013822;28;20185;-41
2023/09/29 02:37:21;;;;;;;1.77;1.50;;;17.00;99.90;;;;;;5014127;28;20209;-41
2023/09/29 02:39:47;;;;;;;5.23;1.87;;;17.00;99.90;;;;;;5013878;28;20272;-43
2023/09/29 02:42:13;;;;;;;2.40;1.87;;;17.10;99.90;;;;;;5014172;28;20196;-45
2023/09/29 02:44:39;;;;;;;4.00;1.60;;;17.00;99.90;;;;;;5014297;28;20242;-48
2023/09/29 02:47:06;;;;;;;3.33;1.40;;;17.00;99.90;;;;;;5014043;28;20561;-47
2023/09/29 02:49:33;;;;;;;1.67;1.57;;;17.00;99.90;;;;;;5013837;28;20198;-44
2023/09/29 02:51:59;;;;;;;2.77;1.70;;;17.00;99.90;;;;;;5013934;28;20182;-46
2023/09/29 02:54:25;;;;;;;1.57;1.47;;;17.00;99.90;;;;;;5013756;28;20645;-46
2023/09/29 02:56:51;;;;;;;4.17;1.80;;;17.00;99.90;;;;;;5013876;28;20251;-45
2023/09/29 02:59:16;;;;;;;2.27;1.90;;;17.00;99.90;;;;;;5014126;28;20681;-47
2023/09/29 03:01:44;;;;;;;3.90;2.20;;;17.00;99.90;;;;;;5013574;28;20260;-45
2023/09/29 03:04:10;;;;;;;4.33;1.63;;;17.00;99.90;;;;;;5013416;28;20178;-46
2023/09/29 03:06:35;;;;;;;2.93;1.40;;;17.00;99.90;;;;;;5013704;28;20196;-45
2023/09/29 03:09:01;;;;;;;2.80;1.80;;;17.10;99.90;;;;;;5015618;28;20261;-47
2023/09/29 03:11:27;;;;;;;4.27;1.80;;;17.00;99.90;;;;;;5019234;28;20594;-45
2023/09/29 03:13:55;;;;;;;3.17;1.60;;;17.10;99.90;;;;;;5016637;28;20231;-48
2023/09/29 03:16:27;;;;;;;2.50;1.70;;;17.10;99.90;;;;;;5013778;28;20170;-45
2023/09/29 03:18:54;;;;;;;4.03;1.87;;;17.10;99.90;;;;;;5013316;28;20220;-46
2023/09/29 03:21:21;;;;;;;3.97;1.50;;;17.10;99.90;;;;;;5013659;28;20189;-49
2023/09/29 03:23:46;;;;;;;3.37;1.73;;;17.10;99.90;;;;;;5013622;28;20645;-47
2023/09/29 03:26:22;;;;;;;7.00;1.90;;;17.10;99.90;;;;;;5013616;28;20265;-46
2023/09/29 03:28:55;;;;;;;2.43;1.67;;;17.10;99.90;;;;;;5013580;28;20624;-47
2023/09/29 03:31:24;;;;;;;4.77;2.07;;;17.10;99.90;;;;;;5012425;28;20629;-47
2023/09/29 03:33:50;;;;;;;2.33;2.00;;;17.20;99.90;;;;;;5013236;28;20185;-48
2023/09/29 03:36:16;;;;;;;4.73;1.93;;;17.20;99.90;;;;;;5013493;28;20193;-48
2023/09/29 03:38:43;;;;;;;3.60;1.70;;;17.20;99.90;;;;;;5014868;28;20210;-48
2023/09/29 03:41:10;;;;;;;5.43;1.90;;;17.20;99.90;;;;;;5016092;28;20669;-48
2023/09/29 03:43:36;;;;;;;2.90;2.20;;;17.20;99.90;;;;;;5016989;28;20162;-48
2023/09/29 03:46:02;;;;;;;2.87;1.77;;;17.20;99.90;;;;;;5017124;28;20189;-48
2023/09/29 03:48:28;;;;;;;5.60;2.13;;;17.20;99.90;;;;;;5016741;28;20684;-47
2023/09/29 03:50:54;;;;;;;3.43;2.07;;;17.20;99.90;;;;;;5016702;28;20198;-47
2023/09/29 03:53:21;;;;;;;5.17;2.23;;;17.30;99.90;;;;;;5015569;28;20197;-43
2023/09/29 03:55:47;;;;;;;5.53;2.17;;;17.30;99.90;;;;;;5017018;28;20189;-42
2023/09/29 03:58:14;;;;;;;5.53;2.57;;;17.30;99.90;;;;;;5016891;28;20262;-43
2023/09/29 04:00:41;;;;;;;4.97;2.40;;;17.30;99.90;;;;;;5016605;28;20202;-42
2023/09/29 04:03:07;;;;;;;5.17;2.17;;;17.20;99.90;;;;;;5016759;28;20166;-42
2023/09/29 04:05:33;;;;;;;4.73;2.20;;;17.20;99.90;;;;;;5016760;28;20293;-41
2023/09/29 04:07:59;;;;;;;5.57;2.60;;;17.20;99.90;;;;;;5016639;28;20177;-43
2023/09/29 04:10:26;;;;;;;3.97;2.30;;;17.10;99.90;;;;;;5016348;28;20222;-43
2023/09/29 04:12:51;;;;;;;4.70;2.37;;;17.20;99.90;;;;;;5016833;28;20185;-42
2023/09/29 04:15:17;;;;;;;5.03;2.50;;;17.20;99.90;;;;;;5016730;28;20180;-43
2023/09/29 04:17:43;;;;;;;3.03;2.17;;;17.20;99.90;;;;;;5016407;28;20220;-41
2023/09/29 04:20:10;;;;;;;3.57;1.97;;;17.30;99.90;;;;;;5016333;28;20204;-40
2023/09/29 04:22:36;;;;;;;8.13;2.30;;;17.30;99.90;;;;;;5016281;28;20189;-42
2023/09/29 04:25:02;;;;;;;3.27;1.93;;;17.20;99.90;;;;;;5016226;28;20570;-44
2023/09/29 04:27:29;;;;;;;5.77;2.20;;;17.30;99.90;;;;;;5017228;28;20178;-42
2023/09/29 04:29:55;;;;;;;6.07;2.27;;;17.30;99.90;;;;;;5017076;28;20199;-42
2023/09/29 04:32:21;;;;;;;5.40;2.30;;;17.40;99.90;;;;;;5016233;28;20709;-43
2023/09/29 04:34:46;;;;;;;4.20;2.13;;;17.40;99.90;;;;;;5016154;28;20555;-40
2023/09/29 04:37:13;;;;;;;2.93;2.17;;;17.40;99.90;;;;;;5015747;28;20213;-41
2023/09/29 04:39:39;;;;;;;4.73;1.97;;;17.30;99.90;;;;;;5015993;28;20208;-42
2023/09/29 04:42:05;;;;;;;4.17;2.00;;;17.30;99.90;;;;;;5015767;28;20194;-44
2023/09/29 04:44:31;;;;;;;5.67;2.37;;;17.30;99.90;;;;;;5015745;28;20235;-41
2023/09/29 04:46:56;;;;;;;3.33;2.03;;;17.40;99.90;;;;;;5015936;28;20177;-41
2023/09/29 04:49:22;;;;;;;5.23;2.40;;;17.40;99.90;;;;;;5015140;28;20198;-45
2023/09/29 04:51:48;;;;;;;4.87;2.37;;;17.40;99.90;;;;;;5016082;28;20243;-41
2023/09/29 04:54:13;;;;;;;3.23;2.17;;;17.30;99.90;;;;;;5015486;28;20182;-41
2023/09/29 04:56:39;;;;;;;3.67;2.80;;;17.30;99.90;;;;;;5015453;28;20185;-43
2023/09/29 04:59:05;;;;;;;8.83;2.77;;;17.30;99.90;;;;;;5015662;28;20647;-41
2023/09/29 05:01:31;;;;;;;7.47;2.33;;;17.30;99.90;;;;;;5015340;28;20209;-42
2023/09/29 05:03:57;;;;;;;7.43;2.43;;;17.30;99.90;;;;;;5015383;28;20224;-40
2023/09/29 05:06:24;;;;;;;5.83;2.40;;;17.20;99.90;;;;;;5015297;28;20264;-43
2023/09/29 05:08:49;;;;;;;5.10;2.27;;;17.30;99.90;;;;;;5015166;28;20518;-42
2023/09/29 05:11:22;;;;;;;5.53;1.90;;;17.30;99.90;;;;;;5015074;28;20256;-44
2023/09/29 05:13:49;;;;;;;7.73;2.60;;;17.20;99.90;;;;;;5015443;28;20181;-42
2023/09/29 05:16:15;;;;;;;4.63;2.40;;;17.30;99.90;;;;;;5015351;28;20186;-39
2023/09/29 05:18:41;;;;;;;4.03;1.93;;;17.30;99.90;;;;;;5015217;28;20684;-40
2023/09/29 05:21:07;;;;;;;4.50;2.10;;;17.30;99.90;;;;;;5014930;28;20201;-44
2023/09/29 05:23:32;;;;;;;3.27;2.27;;;17.30;99.90;;;;;;5014904;28;20256;-39
2023/09/29 05:26:02;;;;;;;4.70;2.23;;;17.30;99.90;;;;;;5015215;28;20174;-42
2023/09/29 05:28:28;;;;;;;3.93;2.10;;;17.30;99.90;;;;;;5014763;28;20653;-43
2023/09/29 05:30:55;;;;;;;4.70;2.17;;;17.30;99.90;;;;;;5014952;28;20300;-42
2023/09/29 05:33:20;;;;;;;2.30;1.83;;;17.40;99.90;;;;;;5014742;28;20182;-39
2023/09/29 05:35:46;;;;;;;3.17;1.77;;;17.40;99.90;;;;;;5014957;28;20178;-43
2023/09/29 05:38:12;;;;;;;3.97;2.30;;;17.40;99.90;;;;;;5014930;28;20209;-45
2023/09/29 05:40:41;;;;;;;5.03;2.27;;;17.40;99.90;;;;;;5014781;28;20567;-44
2023/09/29 05:43:12;;;;;;;3.20;2.30;;;17.40;99.90;;;;;;5015206;28;20307;-42
2023/09/29 05:45:38;;;;;;;4.53;2.27;;;17.40;99.90;;;;;;5014521;28;20177;-43
2023/09/29 05:48:04;;;;;;;7.00;2.17;;;17.40;99.90;;;;;;5014459;28;20177;-43
2023/09/29 05:50:30;;;;;;;4.20;2.47;;;17.40;99.90;;;;;;5014607;28;20212;-41
2023/09/29 05:52:56;;;;;;;4.13;2.30;;;17.40;99.90;;;;;;5014439;28;20649;-42
2023/09/29 05:55:23;;;;;;;2.97;2.03;;;17.40;99.90;;;;;;5013302;28;20196;-42
2023/09/29 05:57:50;;;;;;;8.10;2.20;;;17.40;99.90;;;;;;5014298;28;20275;-48
2023/09/29 06:00:17;;;;;;;3.83;2.30;;;17.40;99.90;;;;;;5012821;28;20201;-46
2023/09/29 06:02:43;;;;;;;5.47;2.67;;;17.50;99.90;;;;;;5014248;28;20205;-42
2023/09/29 06:05:10;;;;;;;8.33;2.30;;;17.50;99.90;;;;;;5014255;28;20263;-39
2023/09/29 06:07:36;;;;;;;3.93;2.33;;;17.50;99.90;;;;;;5014574;28;20178;-39
2023/09/29 06:10:03;;;;;;;6.57;2.20;;;17.50;99.90;;;;;;5014435;28;20549;-47
2023/09/29 06:12:29;;;;;;;6.17;2.20;;;17.50;99.90;;;;;;5014509;28;20182;-43
2023/09/29 06:14:55;;;;;;;7.43;2.03;;;17.50;99.90;;;;;;5014131;28;20526;-43
2023/09/29 06:17:21;;;;;;;5.33;2.63;;;17.50;99.90;;;;;;5014028;28;20225;-41
2023/09/29 06:19:48;;;;;;;4.60;2.00;;;17.50;99.90;;;;;;5014198;28;20277;-42
2023/09/29 06:22:14;;;;;;;5.10;2.20;;;17.60;99.90;;;;;;5014318;28;20177;-42
2023/09/29 06:24:39;;;;;;;5.50;2.10;;;17.60;99.90;;;;;;5013910;28;20576;-43
2023/09/29 06:27:05;;;;;;;6.87;2.73;;;17.60;99.90;;;;;;5014099;28;20182;-44
2023/09/29 06:29:31;;;;;;;5.13;2.27;;;17.60;99.90;;;;;;5014233;28;20193;-46
2023/09/29 06:31:57;;;;;;;6.60;2.30;;;17.70;99.90;;;;;;5013990;28;20177;-46
2023/09/29 06:34:23;;;;;;;4.80;2.50;;;17.70;99.90;;;;;;5012670;28;20178;-45
2023/09/29 06:36:49;;;;;;;5.07;2.13;;;17.70;99.90;;;;;;5014241;28;20182;-47
2023/09/29 06:39:15;;;;;;;10.17;2.50;;;17.70;99.90;;;;;;5014213;28;20250;-45
2023/09/29 06:41:42;;;;;;;5.80;2.70;;;17.70;99.90;;;;;;5013321;28;20204;-48
2023/09/29 06:44:08;;;;;;;5.27;2.50;;;17.80;99.90;;;;;;5015021;28;20200;-47
2023/09/29 06:46:34;;;;;;;3.87;1.83;;;17.80;99.90;;;;;;5014591;28;20209;-47
2023/09/29 06:49:01;;;;;;;4.93;2.50;;;17.80;99.90;;;;;;5014816;28;20181;-47
2023/09/29 06:51:29;;;;;;;4.57;2.20;;;17.80;99.90;;;;;;5016203;28;20272;-45
2023/09/29 06:53:55;;;;;;;5.47;2.30;;;17.80;99.90;;;;;;5019138;28;20178;-47
2023/09/29 06:56:21;;;;;;;5.70;2.40;;;17.90;99.90;;;;;;5022018;28;20185;-48
2023/09/29 06:58:48;;;;;;;6.60;2.70;;;17.90;99.90;;;;;;5020182;28;20656;-48
2023/09/29 07:01:14;;;;;;;3.67;2.17;;;17.90;99.90;;;;;;5016667;28;20232;-47
2023/09/29 07:03:40;;;;;;;6.90;2.90;;;18.00;99.90;;;;;;5014471;28;20209;-45
2023/09/29 07:06:05;;;;;;;7.43;2.40;;;18.10;99.90;;;;;;5013868;28;20177;-47
2023/09/29 07:08:32;;;;;;;5.63;2.40;;;18.10;99.90;;;;;;5012746;28;20186;-47
2023/09/29 07:10:58;;;;;;;3.97;2.23;;;18.20;99.90;;;;;;5012705;28;20213;-47
2023/09/29 07:13:25;;;;;;;7.30;2.90;;;18.20;99.90;;;;;;5016072;28;20177;-48
2023/09/29 07:15:51;;;;;;;3.83;2.40;;;18.30;99.90;;;;;;5017759;28;20248;-43
2023/09/29 07:18:17;;;;;;;4.67;2.43;;;18.40;99.90;;;;;;5016247;28;20703;-43
2023/09/29 07:20:43;;;;;;;7.93;2.50;;;18.50;99.90;;;;;;5017455;28;20208;-43
2023/09/29 07:23:09;;;;;;;5.87;2.60;;;18.50;99.90;;;;;;5017870;28;20216;-42
2023/09/29 07:25:37;;;;;;;6.27;2.33;;;18.60;99.90;;;;;;5017451;28;20271;-43
2023/09/29 07:28:19;;;;;;;3.07;2.43;;;18.70;99.90;;;;;;5017863;28;20190;-44
2023/09/29 07:30:45;;;;;;;4.33;2.30;;;18.60;99.90;;;;;;5019773;28;20224;-41
2023/09/29 07:33:11;;;;;;;6.03;2.20;;;18.80;99.90;;;;;;5020295;28;20185;-42
2023/09/29 07:35:37;;;;;;;5.60;2.43;;;18.80;99.90;;;;;;5018455;28;20178;-42
2023/09/29 07:38:04;;;;;;;2.93;2.00;;;18.80;99.90;;;;;;5020016;28;20233;-43
2023/09/29 07:40:30;;;;;;;5.63;2.87;;;18.90;99.90;;;;;;5020042;28;20252;-43
2023/09/29 07:42:57;;;;;;;3.67;2.70;;;19.00;99.90;;;;;;5019444;28;20224;-43
2023/09/29 07:45:23;;;;;;;3.87;2.37;;;19.20;99.90;;;;;;5017724;28;20174;-42
2023/09/29 07:47:49;;;;;;;6.30;2.60;;;19.30;99.90;;;;;;5015616;28;20235;-42
2023/09/29 07:50:15;;;;;;;6.20;2.50;;;19.40;99.90;;;;;;5016839;28;20573;-42
2023/09/29 07:52:40;;;;;;;5.00;2.80;;;19.50;99.90;;;;;;5016689;28;20189;-41
2023/09/29 07:55:07;;;;;;;5.33;2.67;;;19.50;99.90;;;;;;5016955;28;20182;-43
2023/09/29 07:57:33;;;;;;;2.60;2.23;;;19.60;99.90;;;;;;5017298;28;20205;-43
2023/09/29 07:59:59;;;;;;;5.30;2.57;;;19.70;99.90;;;;;;5016602;28;20657;-42
2023/09/29 08:02:25;;;;;;;4.77;2.40;;;19.80;99.90;;;;;;5016715;28;20174;-42
2023/09/29 08:04:51;;;;;;;7.57;2.53;;;19.90;99.90;;;;;;5016545;28;20661;-42
2023/09/29 08:07:17;;;;;;;8.47;2.73;;;19.90;99.90;;;;;;5016724;28;20177;-42
2023/09/29 08:09:43;;;;;;;6.43;2.33;;;20.00;99.90;;;;;;5015317;28;20256;-44
2023/09/29 08:12:08;;;;;;;6.87;2.40;;;20.00;99.90;;;;;;5016949;28;20560;-44
2023/09/29 08:14:34;;;;;;;6.00;2.10;;;20.10;99.90;;;;;;5015131;28;20699;-43
2023/09/29 08:17:00;;;;;;;3.57;2.07;;;20.20;99.90;;;;;;5016809;28;20236;-44
2023/09/29 08:19:28;;;;;;;4.47;2.33;;;20.30;99.90;;;;;;5016368;28;20206;-42
2023/09/29 08:21:54;;;;;;;5.73;2.50;;;20.30;99.90;;;;;;5016456;28;20181;-42
2023/09/29 08:24:19;;;;;;;5.37;2.50;;;20.50;99.90;;;;;;5015154;28;20696;-42
2023/09/29 08:26:45;;;;;;;8.77;2.73;;;20.60;99.90;;;;;;5016376;28;20228;-42
2023/09/29 08:29:15;;;;;;;6.70;2.83;;;20.80;99.90;;;;;;5016010;28;20178;-42
2023/09/29 08:31:44;;;;;;;5.00;2.00;;;21.00;99.90;;;;;;5015931;28;20688;-43
2023/09/29 08:34:10;;;;;;;3.60;2.47;;;21.10;99.90;;;;;;5015974;28;20177;-42
2023/09/29 08:36:36;;;;;;;8.87;2.30;;;21.20;99.90;;;;;;5015878;28;20185;-44
2023/09/29 08:39:01;;;;;;;2.97;1.93;;;21.30;99.90;;;;;;5015671;28;20205;-45
2023/09/29 08:41:29;;;;;;;5.37;2.40;;;21.40;99.90;;;;;;5015690;28;20540;-43
2023/09/29 08:43:55;;;;;;;3.33;2.50;;;21.50;99.90;;;;;;5016106;28;20192;-43
2023/09/29 08:46:21;;;;;;;4.90;2.63;;;21.60;88.20;;;;;;5015685;28;20177;-43
2023/09/29 08:48:48;;;;;;;5.13;2.33;;;21.70;54.00;;;;;;5015732;28;20181;-42
2023/09/29 08:51:15;;;;;;;9.30;2.33;;;21.70;50.80;;;;;;5014252;28;20624;-43
2023/09/29 08:53:44;;;;;;;7.53;2.60;;;21.80;28.70;;;;;;5015844;28;20197;-42
2023/09/29 08:56:12;;;;;;;6.23;2.40;;;21.70;26.60;;;;;;5015568;28;20679;-42
2023/09/29 08:58:38;;;;;;;4.77;2.67;;;21.70;23.80;;;;;;5015401;28;20197;-42
2023/09/29 09:01:05;;;;;;;5.90;2.23;;;21.70;27.40;;;;;;5015389;28;20197;-41
2023/09/29 09:03:31;;;;;;;3.43;2.20;;;21.60;28.70;;;;;;5014329;28;20177;-44
2023/09/29 09:05:56;;;;;;;4.00;2.07;;;21.60;25.00;;;;;;5015619;28;20170;-42
2023/09/29 09:08:23;;;;;;;10.03;2.27;;;21.60;19.80;;;;;;5014885;28;20178;-43
2023/09/29 09:11:01;;;;;;;4.73;1.77;;;21.60;1.00;;;;;;5016094;28;20642;-41
2023/09/29 09:13:26;;;;;;;5.40;2.10;;;21.60;1.00;;;;;;5014565;28;20174;-43
2023/09/29 09:16:01;;;;;;;4.17;2.20;;;21.60;2.90;;;;;;5015508;28;20599;-42
2023/09/29 09:18:27;;;;;;;4.13;2.20;;;21.60;2.90;;;;;;5014044;28;20189;-42
2023/09/29 09:20:54;;;;;;;5.23;2.20;;;21.50;1.00;;;;;;5015712;28;20543;-42
2023/09/29 09:23:19;;;;;;;3.70;2.07;;;21.50;1.00;;;;;;5015022;28;20228;-42
2023/09/29 09:25:45;;;;;;;7.53;2.03;;;21.50;2.80;;;;;;5014962;28;20642;-43
2023/09/29 09:28:19;;;;;;;4.10;2.20;;;21.50;1.00;;;;;;5015159;28;20561;-43
2023/09/29 09:30:46;;;;;;;5.23;2.23;;;21.50;1.00;;;;;;5014924;28;20197;-43
2023/09/29 09:33:21;;;;;;;3.93;2.30;;;21.50;1.00;;;;;;5013624;28;20182;-43
2023/09/29 09:35:51;;;;;;;7.17;2.50;;;21.40;3.40;;;;;;5014750;28;20197;-44
2023/09/29 09:38:16;;;;;;;6.50;2.60;;;21.50;8.70;;;;;;5014662;28;20696;-42
2023/09/29 09:40:47;;;;;;;5.33;2.53;;;21.50;9.20;;;;;;5014502;28;20193;-43
2023/09/29 09:43:13;;;;;;;6.77;2.60;;;21.50;12.60;;;;;;5014582;28;20185;-43
2023/09/29 09:45:40;;;;;;;7.60;2.70;;;21.60;9.00;;;;;;5014600;28;20519;-42
2023/09/29 09:48:08;;;;;;;7.57;2.83;;;21.60;1.00;;;;;;5014585;28;20186;-44
2023/09/29 09:50:36;;;;;;;8.23;2.50;;;21.70;1.00;;;;;;5014443;28;20276;-42
2023/09/29 09:53:05;;;;;;;8.70;3.10;;;21.70;1.00;;;;;;5014842;28;20248;-43
2023/09/29 09:55:40;;;;;;;7.83;3.10;;;21.80;1.00;;;;;;5013374;28;20571;-39
2023/09/29 09:58:13;;;;;;;6.33;3.23;;;21.90;1.00;;;;;;5014723;28;20300;-42
2023/09/29 10:00:41;;;;;;;8.13;3.10;;;21.90;1.00;;;;;;5014625;28;20209;-42
2023/09/29 10:03:12;;;;;;;5.57;3.20;;;21.90;1.00;;;;;;5015223;28;20182;-40
2023/09/29 10:05:41;;;;;;;7.67;3.60;;;22.00;1.00;;;;;;5015345;28;20161;-42
2023/09/29 10:08:10;;;;;;;7.27;3.13;;;22.10;1.00;;;;;;5013046;28;20646;-40
2023/09/29 10:10:41;;;;;;;8.60;3.77;;;22.20;1.00;;;;;;5014254;28;20251;-42
2023/09/29 10:13:11;;;;;;;8.90;3.73;;;22.20;1.00;;;;;;5014372;28;20193;-42
2023/09/29 10:15:38;;;;;;;8.93;3.70;;;22.20;1.00;;;;;;5014086;28;20170;-41
2023/09/29 10:18:21;;;;;;;7.63;3.90;;;22.20;1.00;;;;;;5013297;28;20212;-43
2023/09/29 10:20:58;;;;;;;7.63;4.00;;;22.20;1.00;;;;;;5014137;28;20605;-43
2023/09/29 10:23:27;;;;;;;12.87;4.20;;;22.20;1.00;;;;;;5012752;28;20174;-42
2023/09/29 10:25:58;;;;;;;9.73;4.67;;;22.30;1.00;;;;;;5014169;28;20581;-41
2023/09/29 10:28:32;;;;;;;9.60;4.37;;;22.30;1.00;;;;;;5013886;28;20193;-42
2023/09/29 10:31:09;;;;;;;9.03;4.60;;;22.50;1.00;;;;;;5013858;28;20283;-40
2023/09/29 10:33:53;;;;;;;11.70;4.67;;;22.50;1.00;;;;;;5014025;28;20265;-42
2023/09/29 10:36:29;;;;;;;13.37;4.50;;;22.60;1.00;;;;;;5013811;28;20269;-41
2023/09/29 10:38:59;;;;;;;9.53;4.07;;;22.60;1.00;;;;;;5013850;28;20571;-41
2023/09/29 10:41:28;;;;;;;10.30;4.13;;;22.60;1.00;;;;;;5013579;28;20271;-44
2023/09/29 10:43:58;;;;;;;10.43;4.43;;;22.50;1.00;;;;;;5014331;28;20235;-42
2023/09/29 10:46:25;;;;;;;11.37;4.10;;;22.50;1.00;;;;;;5015010;28;20173;-43
2023/09/29 10:48:54;;;;;;;11.63;4.87;;;22.50;1.00;;;;;;5014066;28;20276;-43
2023/09/29 10:51:27;;;;;;;11.97;4.67;;;22.50;1.00;;;;;;5014103;28;20184;-43
2023/09/29 10:53:54;;;;;;;11.83;5.30;;;22.60;1.00;;;;;;5013890;28;20170;-42
2023/09/29 10:56:20;;;;;;;11.50;4.63;;;22.70;1.00;;;;;;5013733;28;20212;-40
2023/09/29 10:58:46;;;;;;;10.37;4.20;;;22.80;1.00;;;;;;5013611;28;20235;-44
2023/09/29 11:01:32;;;;;;;7.23;3.60;;;22.80;1.00;;;;;;5013699;28;20681;-42
2023/09/29 11:03:59;;;;;;;8.87;4.43;;;22.90;1.00;;;;;;5013763;28;20173;-43
2023/09/29 11:06:25;;;;;;;11.13;4.63;;;23.00;1.00;;;;;;5012345;28;20174;-39
2023/09/29 11:08:56;;;;;;;10.23;4.33;;;23.00;1.00;;;;;;5013574;28;20189;-41
2023/09/29 11:11:25;;;;;;;9.67;4.10;;;23.00;1.00;;;;;;5014131;28;20223;-43
2023/09/29 11:13:55;;;;;;;12.27;4.57;;;23.10;1.00;;;;;;5013754;28;20192;-41
2023/09/29 11:16:24;;;;;;;9.80;4.03;;;23.10;1.00;;;;;;5013476;28;20174;-42
2023/09/29 11:18:50;;;;;;;10.63;4.80;;;23.10;1.00;;;;;;5013500;28;20194;-42
2023/09/29 11:21:17;;;;;;;7.37;3.80;;;23.20;1.00;;;;;;5013520;28;20205;-46
2023/09/29 11:23:49;;;;;;;10.77;4.57;;;23.30;1.00;;;;;;5012071;28;20208;-47
2023/09/29 11:26:16;;;;;;;11.77;4.67;;;23.30;1.00;;;;;;5013603;28;20170;-47
2023/09/29 11:28:48;;;;;;;6.90;3.53;;;23.30;1.00;;;;;;5013266;28;20204;-47
2023/09/29 11:31:17;;;;;;;7.80;3.87;;;23.30;1.00;;;;;;5013473;28;20204;-47
2023/09/29 11:33:45;;;;;;;7.50;3.53;;;23.40;1.00;;;;;;5013359;28;20583;-47
2023/09/29 11:36:23;;;;;;;8.23;3.60;;;23.50;1.00;;;;;;5013327;28;20174;-44
2023/09/29 11:38:52;;;;;;;7.33;3.47;;;23.50;1.00;;;;;;5013707;28;20201;-48
2023/09/29 11:41:21;;;;;;;9.83;4.07;;;23.50;1.00;;;;;;5013267;28;20181;-48
2023/09/29 11:43:47;;;;;;;8.67;3.87;;;23.60;1.00;;;;;;5013562;28;20162;-47
2023/09/29 11:46:16;;;;;;;9.73;3.87;;;23.60;1.00;;;;;;5013208;28;20178;-49
2023/09/29 11:48:42;;;;;;;7.30;3.57;;;23.60;1.00;;;;;;5013302;28;20252;-43
2023/09/29 11:51:10;;;;;;;12.33;3.87;;;23.70;1.00;;;;;;5013371;28;20233;-42
2023/09/29 11:53:36;;;;;;;6.67;3.47;;;23.60;1.00;;;;;;5013558;28;20551;-44
2023/09/29 11:56:03;;;;;;;10.13;3.57;;;23.60;1.00;;;;;;5013575;28;20178;-43
2023/09/29 11:58:31;;;;;;;9.37;4.00;;;23.60;1.00;;;;;;5013132;28;20206;-42
2023/09/29 12:01:00;;;;;;;11.30;3.77;;;23.50;1.00;;;;;;5016793;28;20193;-42
2023/09/29 12:03:27;;;;;;;8.80;3.50;;;23.40;1.00;;;;;;5015396;28;20186;-42
2023/09/29 12:05:53;;;;;;;6.73;3.73;;;23.40;1.00;;;;;;5015502;28;20182;-41
2023/09/29 12:08:19;;;;;;;9.80;3.30;;;23.40;1.00;;;;;;5016683;28;20178;-43
2023/09/29 12:10:49;;;;;;;9.10;3.47;;;23.50;1.00;;;;;;5016484;28;20277;-46
2023/09/29 12:13:15;;;;;;;7.40;3.17;;;23.50;1.00;;;;;;5015452;28;20177;-47
2023/09/29 12:15:48;;;;;;;6.23;2.77;;;23.40;1.00;;;;;;5024298;23;20429;-43
2023/09/29 12:18:14;;;;;;;7.47;2.90;;;23.40;1.00;;;;;;5016690;28;20210;-43
2023/09/29 12:20:41;;;;;;;10.97;3.00;;;23.50;1.00;;;;;;5015107;28;20699;-41
2023/09/29 12:23:08;;;;;;;7.97;3.30;;;23.50;1.00;;;;;;5016460;28;20177;-42
2023/09/29 12:25:35;;;;;;;5.93;3.00;;;23.40;1.00;;;;;;5016485;28;20537;-41
2023/09/29 12:28:03;;;;;;;6.00;2.47;;;23.40;1.00;;;;;;5016346;28;20174;-41
2023/09/29 12:30:29;;;;;;;5.43;3.03;;;23.30;1.00;;;;;;5016465;28;20288;-42
2023/09/29 12:32:54;;;;;;;8.47;3.20;;;23.20;1.00;;;;;;5016433;28;20218;-42
2023/09/29 12:35:20;;;;;;;13.67;3.70;;;23.10;1.00;;;;;;5016538;28;20248;-42
2023/09/29 12:37:46;;;;;;;8.63;3.30;;;22.90;1.00;;;;;;5016081;28;20228;-43
2023/09/29 12:40:13;;;;;;;12.27;3.07;;;22.70;17.40;;;;;;5014751;28;20198;-41
2023/09/29 12:42:44;;;;;;;12.67;3.00;;;22.40;36.10;;;;;;5016111;28;20177;-42
2023/09/29 12:45:10;;;;;;;5.30;2.50;;;22.30;62.30;;;;;;5016120;28;20162;-44
2023/09/29 12:47:36;;;;;;;6.50;2.97;;;22.10;84.10;;;;;;5015858;28;20232;-43
2023/09/29 12:50:03;;;;;;;5.03;2.27;;;22.00;94.10;;;;;;5016079;28;20232;-42
2023/09/29 12:52:28;;;;;;;5.17;2.30;;;22.00;96.30;;;;;;5015720;28;20724;-41